Time;durP1;ratioP1;P1;durP2;ratioP2;P2;SDS_P1;SDS_P2;PMS_P1;PMS_P2;Temp;Humidity;BMP_temperature;BMP_pressure;BME280_temperature;BME280_humidity;BME280_pressure;Samples;Min_cycle;Max_cycle;Signal;HPM_P1;HPM_P2
2023/09/27 00:00:17;;;;;;;19.90;17.80;;;;;;;16.75;100.00;98679.73;106673;1283;22539;-78
2023/09/27 00:03:05;;;;;;;21.30;19.00;;;;;;;16.80;100.00;98676.33;106715;1283;22529;-78
2023/09/27 00:05:34;;;;;;;19.80;17.70;;;;;;;16.85;100.00;98681.06;106719;1283;22561;-79
2023/09/27 00:08:09;;;;;;;20.90;18.70;;;;;;;16.82;100.00;98680.75;106702;1284;22538;-78
2023/09/27 00:10:37;;;;;;;23.30;19.40;;;;;;;16.95;100.00;98678.69;106744;1283;22533;-77
2023/09/27 00:13:05;;;;;;;21.80;17.40;;;;;;;17.03;100.00;98684.93;106697;1283;24343;-78
2023/09/27 00:15:33;;;;;;;18.10;16.00;;;;;;;16.87;100.00;98682.38;106707;1284;24240;-77
2023/09/27 00:18:01;;;;;;;16.60;15.00;;;;;;;16.73;100.00;98685.56;106638;1283;22658;-77
2023/09/27 00:20:30;;;;;;;17.70;14.20;;;;;;;16.69;100.00;98685.14;106645;1283;25362;-77
2023/09/27 00:22:58;;;;;;;18.70;16.90;;;;;;;16.86;100.00;98688.30;106623;1273;22541;-77
2023/09/27 00:25:26;;;;;;;14.40;12.80;;;;;;;16.74;100.00;98690.17;106641;1266;22524;-77
2023/09/27 00:27:54;;;;;;;16.70;15.00;;;;;;;16.65;100.00;98686.19;106329;1272;22538;-78
2023/09/27 00:30:22;;;;;;;20.50;16.20;;;;;;;16.78;100.00;98683.47;106545;1283;247707;-78
2023/09/27 00:32:50;;;;;;;22.40;14.60;;;;;;;16.74;100.00;98687.39;106472;1283;22537;-78
2023/09/27 00:35:22;;;;;;;16.50;14.90;;;;;;;16.38;100.00;98684.61;106598;1283;22584;-78
2023/09/27 00:37:51;;;;;;;18.70;16.10;;;;;;;16.23;100.00;98684.27;106650;1284;23936;-78
2023/09/27 00:40:22;;;;;;;16.40;14.70;;;;;;;16.01;100.00;98685.08;106541;1284;24216;-78
2023/09/27 00:42:50;;;;;;;21.80;15.50;;;;;;;15.67;100.00;98684.29;106613;1283;22657;-78
2023/09/27 00:45:18;;;;;;;17.60;15.00;;;;;;;15.75;100.00;98680.84;106569;1283;23401;-78
2023/09/27 00:47:48;;;;;;;19.30;15.10;;;;;;;15.78;100.00;98683.20;106716;1283;22619;-78
2023/09/27 00:50:16;;;;;;;15.90;14.30;;;;;;;15.55;100.00;98680.02;106713;1283;22534;-78
2023/09/27 00:52:46;;;;;;;16.40;12.40;;;;;;;15.39;100.00;98679.09;106644;1283;22782;-78
2023/09/27 00:55:19;;;;;;;18.90;14.60;;;;;;;15.40;100.00;98671.31;106780;1266;22538;-78
2023/09/27 00:57:50;;;;;;;16.30;14.10;;;;;;;15.62;100.00;98676.77;106779;1284;22795;-78
2023/09/27 01:00:19;;;;;;;14.20;12.80;;;;;;;15.48;100.00;98678.27;106731;1283;23363;-78
2023/09/27 01:02:50;;;;;;;17.30;14.10;;;;;;;15.37;100.00;98678.50;106666;1283;22574;-78
2023/09/27 01:05:19;;;;;;;19.00;13.30;;;;;;;15.26;100.00;98678.47;106750;1284;22862;-78
2023/09/27 01:07:47;;;;;;;15.90;14.10;;;;;;;15.24;100.00;98683.47;106665;1284;22532;-77
2023/09/27 01:10:15;;;;;;;19.10;13.10;;;;;;;15.11;100.00;98682.09;106547;1284;22537;-77
2023/09/27 01:12:44;;;;;;;16.00;13.30;;;;;;;15.12;100.00;98683.20;106638;1284;22526;-78
2023/09/27 01:15:12;;;;;;;17.90;13.40;;;;;;;15.04;100.00;98687.33;106743;1284;24224;-78
2023/09/27 01:17:52;;;;;;;21.30;12.90;;;;;;;14.99;100.00;98683.68;106683;1283;22570;-78
2023/09/27 01:20:20;;;;;;;14.40;12.90;;;;;;;15.01;100.00;98682.93;106570;1283;24215;-78
2023/09/27 01:22:58;;;;;;;15.70;13.00;;;;;;;15.12;100.00;98682.81;106734;1284;25373;-77
2023/09/27 01:25:29;;;;;;;17.10;13.20;;;;;;;15.00;100.00;98684.42;106682;1284;22545;-78
2023/09/27 01:27:59;;;;;;;18.80;12.70;;;;;;;14.85;100.00;98680.70;106689;1284;23258;-78
2023/09/27 01:30:33;;;;;;;16.60;13.10;;;;;;;14.71;100.00;98679.58;106784;1283;22634;-79
2023/09/27 01:33:05;;;;;;;15.90;13.00;;;;;;;14.58;100.00;98678.61;106544;1284;25345;-79
2023/09/27 01:35:39;;;;;;;17.60;12.90;;;;;;;14.46;100.00;98673.86;106645;1283;22756;-78
2023/09/27 01:38:09;;;;;;;17.60;12.00;;;;;;;14.36;100.00;98676.30;106834;1262;22532;-79
2023/09/27 01:40:40;;;;;;;13.20;11.30;;;;;;;14.28;100.00;98675.23;106697;1283;22540;-78
2023/09/27 01:43:11;;;;;;;14.20;11.70;;;;;;;14.21;100.00;98676.99;106706;1284;25321;-78
2023/09/27 01:45:39;;;;;;;14.20;11.50;;;;;;;14.22;100.00;98679.31;106711;1283;25287;-78
2023/09/27 01:48:07;;;;;;;16.90;12.10;;;;;;;14.36;100.00;98678.90;106703;1283;23057;-78
2023/09/27 01:50:35;;;;;;;14.80;10.50;;;;;;;14.43;100.00;98679.93;106616;1283;25243;-78
2023/09/27 01:53:05;;;;;;;15.10;11.70;;;;;;;14.38;100.00;98685.04;106710;1284;25247;-78
2023/09/27 01:55:33;;;;;;;16.40;11.60;;;;;;;14.39;100.00;98681.33;106774;1284;23141;-78
2023/09/27 01:58:02;;;;;;;12.80;9.90;;;;;;;14.43;100.00;98682.92;106571;1260;25500;-78
2023/09/27 02:00:30;;;;;;;13.00;9.80;;;;;;;14.45;100.00;98682.83;106789;1283;22566;-78
2023/09/27 02:03:00;;;;;;;17.10;10.80;;;;;;;14.42;100.00;98684.62;106707;1284;25384;-78
2023/09/27 02:05:30;;;;;;;12.40;10.70;;;;;;;14.39;100.00;98685.98;106704;1284;22647;-80
2023/09/27 02:07:58;;;;;;;15.30;11.20;;;;;;;14.32;100.00;98685.44;106789;1283;23380;-79
2023/09/27 02:10:26;;;;;;;13.80;10.10;;;;;;;14.33;100.00;98683.73;106543;1284;22557;-78
2023/09/27 02:12:54;;;;;;;16.90;11.20;;;;;;;14.48;100.00;98682.00;106575;1283;22548;-78
2023/09/27 02:15:22;;;;;;;13.60;9.70;;;;;;;14.74;100.00;98683.77;106769;1283;22551;-78
2023/09/27 02:17:50;;;;;;;15.00;11.50;;;;;;;14.98;100.00;98682.45;106577;1284;22546;-78
2023/09/27 02:20:18;;;;;;;14.20;10.70;;;;;;;14.93;100.00;98680.30;106814;1283;22539;-78
2023/09/27 02:22:47;;;;;;;16.10;11.50;;;;;;;14.64;100.00;98680.00;106821;1284;23019;-78
2023/09/27 02:25:16;;;;;;;16.60;10.60;;;;;;;14.41;100.00;98675.70;106376;1284;24347;-79
2023/09/27 02:27:44;;;;;;;16.30;11.50;;;;;;;14.22;100.00;98674.87;106515;1283;22538;-79
2023/09/27 02:30:14;;;;;;;11.80;9.90;;;;;;;14.03;100.00;98677.70;106575;1283;24381;-81
2023/09/27 02:32:43;;;;;;;17.70;10.70;;;;;;;13.83;100.00;98673.98;106691;1284;24861;-80
2023/09/27 02:35:13;;;;;;;17.00;10.60;;;;;;;13.68;100.00;98676.30;106757;1284;23217;-81
2023/09/27 02:37:43;;;;;;;12.40;10.00;;;;;;;13.56;100.00;98677.46;106684;1283;22566;-81
2023/09/27 02:40:12;;;;;;;13.20;11.50;;;;;;;13.45;100.00;98679.14;106655;1284;22560;-81
2023/09/27 02:42:43;;;;;;;12.00;10.50;;;;;;;13.38;100.00;98675.29;106630;1284;25340;-81
2023/09/27 02:45:12;;;;;;;16.30;11.30;;;;;;;13.32;100.00;98672.36;106574;1284;22561;-82
2023/09/27 02:47:45;;;;;;;14.90;11.70;;;;;;;13.26;100.00;98672.40;106646;1283;24317;-82
2023/09/27 02:50:14;;;;;;;11.40;10.20;;;;;;;13.24;100.00;98668.79;107201;1266;22554;-81
2023/09/27 02:52:43;;;;;;;16.30;11.40;;;;;;;13.21;100.00;98669.33;107764;1284;22551;-82
2023/09/27 02:55:12;;;;;;;16.60;11.30;;;;;;;13.16;100.00;98668.55;106448;1284;24232;-81
2023/09/27 02:57:42;;;;;;;18.40;11.10;;;;;;;13.16;100.00;98666.64;106676;1283;22562;-82
2023/09/27 03:00:11;;;;;;;13.50;11.60;;;;;;;13.14;100.00;98661.27;106779;1284;25370;-82
2023/09/27 03:02:39;;;;;;;18.20;11.80;;;;;;;13.16;100.00;98660.75;106647;1283;24350;-84
2023/09/27 03:05:09;;;;;;;13.70;11.80;;;;;;;13.15;100.00;98658.01;106707;1284;22583;-82
2023/09/27 03:07:38;;;;;;;17.80;12.10;;;;;;;13.16;100.00;98657.79;106678;1283;25297;-81
2023/09/27 03:10:10;;;;;;;15.50;11.90;;;;;;;13.14;100.00;98659.65;106761;1284;24236;-82
2023/09/27 03:12:40;;;;;;;17.00;11.30;;;;;;;13.18;100.00;98661.48;106780;1284;23222;-82
2023/09/27 03:15:10;;;;;;;17.10;10.90;;;;;;;13.22;100.00;98664.84;106751;1283;24328;-81
2023/09/27 03:17:42;;;;;;;14.30;10.70;;;;;;;13.18;100.00;98663.73;106692;1284;23910;-81
2023/09/27 03:20:19;;;;;;;13.70;11.20;;;;;;;13.17;100.00;98659.55;106752;1283;24261;-81
2023/09/27 03:22:48;;;;;;;17.30;12.50;;;;;;;13.15;100.00;98669.91;106555;1279;22624;-81
2023/09/27 03:25:17;;;;;;;15.90;12.80;;;;;;;13.13;100.00;98668.27;106781;1283;22552;-81
2023/09/27 03:27:46;;;;;;;15.60;12.10;;;;;;;13.07;100.00;98671.83;106594;1282;22590;-83
2023/09/27 03:30:17;;;;;;;14.80;11.00;;;;;;;13.04;100.00;98671.12;107016;1283;23912;-82
2023/09/27 03:32:46;;;;;;;14.00;12.30;;;;;;;13.03;100.00;98672.71;106825;1281;23893;-81
2023/09/27 03:35:14;;;;;;;18.80;13.00;;;;;;;13.05;100.00;98671.59;106663;1281;22529;-82
2023/09/27 03:37:44;;;;;;;12.50;10.80;;;;;;;13.12;100.00;98674.45;106749;1277;25145;-80
2023/09/27 03:40:13;;;;;;;18.50;13.00;;;;;;;13.06;100.00;98671.15;106774;1283;23297;-81
2023/09/27 03:42:44;;;;;;;15.00;11.80;;;;;;;13.01;100.00;98679.24;106595;1281;24773;-82
2023/09/27 03:45:17;;;;;;;16.20;12.10;;;;;;;12.97;100.00;98680.86;106653;1284;26713;-82
2023/09/27 03:47:47;;;;;;;25.00;22.40;;;;;;;12.96;100.00;98681.31;106640;1281;23284;-82
2023/09/27 03:50:18;;;;;;;13.20;11.70;;;;;;;12.96;100.00;98681.36;106509;1283;22584;-82
2023/09/27 03:52:46;;;;;;;16.40;11.70;;;;;;;12.96;100.00;98680.03;106648;1283;22592;-82
2023/09/27 03:55:14;;;;;;;13.80;12.50;;;;;;;12.94;100.00;98681.73;106780;1283;24221;-82
2023/09/27 03:57:42;;;;;;;13.40;11.80;;;;;;;12.97;100.00;98685.38;106752;1283;24218;-82
2023/09/27 04:00:14;;;;;;;14.80;12.90;;;;;;;13.01;100.00;98687.58;106712;1284;24432;-82
2023/09/27 04:02:44;;;;;;;18.40;12.30;;;;;;;13.02;100.00;98688.04;106518;1283;25412;-81
2023/09/27 04:05:13;;;;;;;14.50;11.30;;;;;;;13.00;100.00;98692.79;106644;1283;22553;-82
2023/09/27 04:07:41;;;;;;;14.80;11.40;;;;;;;12.94;100.00;98692.55;106579;1284;22954;-82
2023/09/27 04:10:09;;;;;;;14.40;10.90;;;;;;;12.90;100.00;98692.45;106829;1284;22770;-82
2023/09/27 04:12:37;;;;;;;24.80;12.80;;;;;;;12.84;100.00;98689.26;106722;1283;22600;-82
2023/09/27 04:15:09;;;;;;;14.60;11.60;;;;;;;12.78;100.00;98689.88;106570;1284;22622;-82
2023/09/27 04:17:38;;;;;;;12.90;10.80;;;;;;;12.73;100.00;98689.19;106739;1283;25446;-82
2023/09/27 04:20:13;;;;;;;14.60;11.10;;;;;;;12.68;100.00;98692.57;106770;1276;22569;-84
2023/09/27 04:22:43;;;;;;;16.20;11.80;;;;;;;12.61;100.00;98693.63;106896;1283;22546;-83
2023/09/27 04:25:15;;;;;;;16.40;11.70;;;;;;;12.56;100.00;98695.48;106755;1284;23879;-82
2023/09/27 04:27:46;;;;;;;34.00;12.00;;;;;;;12.53;100.00;98695.52;107131;1283;25471;-83
2023/09/27 04:30:14;;;;;;;16.50;12.20;;;;;;;12.50;100.00;98695.21;106805;1283;22656;-83
2023/09/27 04:32:43;;;;;;;17.10;11.60;;;;;;;12.52;100.00;98693.98;106885;1284;24286;-83
2023/09/27 04:35:13;;;;;;;16.80;11.50;;;;;;;12.52;100.00;98694.74;106892;1281;22569;-82
2023/09/27 04:37:41;;;;;;;13.50;12.10;;;;;;;12.47;100.00;98695.20;106856;1282;23368;-84
2023/09/27 04:40:14;;;;;;;15.90;11.90;;;;;;;12.45;100.00;98693.77;106826;1283;22670;-88
2023/09/27 04:42:43;;;;;;;15.20;12.70;;;;;;;12.43;100.00;98693.50;106962;1276;23885;-84
2023/09/27 04:45:13;;;;;;;20.40;12.00;;;;;;;12.45;100.00;98692.39;106853;1266;22603;-81
2023/09/27 04:47:44;;;;;;;13.10;11.40;;;;;;;12.47;100.00;98693.83;106815;1282;22556;-80
2023/09/27 04:50:13;;;;;;;14.60;10.80;;;;;;;12.47;100.00;98698.38;107033;1282;23668;-81
2023/09/27 04:52:44;;;;;;;14.00;11.50;;;;;;;12.46;100.00;98702.59;106772;1284;22579;-81
2023/09/27 04:55:13;;;;;;;16.00;12.60;;;;;;;12.47;100.00;98701.23;106824;1284;24333;-80
2023/09/27 04:57:41;;;;;;;19.50;13.30;;;;;;;12.47;100.00;98699.56;106786;1282;22549;-80
2023/09/27 05:00:18;;;;;;;15.80;12.70;;;;;;;12.48;100.00;98700.20;106856;1282;22534;-78
2023/09/27 05:02:52;;;;;;;17.00;11.80;;;;;;;12.48;100.00;98704.15;106882;1282;25397;-85
2023/09/27 05:05:20;;;;;;;14.90;13.40;;;;;;;12.47;100.00;98706.54;106620;1284;25421;-84
2023/09/27 05:07:49;;;;;;;14.50;12.50;;;;;;;12.49;100.00;98711.11;106641;1284;22546;-86
2023/09/27 05:10:17;;;;;;;16.80;12.80;;;;;;;12.53;100.00;98709.91;106853;1284;22553;-86
2023/09/27 05:12:45;;;;;;;17.70;13.00;;;;;;;12.56;100.00;98709.52;106738;1283;24260;-83
2023/09/27 05:15:12;;;;;;;17.60;13.10;;;;;;;12.56;100.00;98710.69;106861;1280;22510;-87
2023/09/27 05:17:41;;;;;;;15.30;13.60;;;;;;;12.53;100.00;98712.84;106795;1277;25423;-85
2023/09/27 05:20:10;;;;;;;17.10;13.30;;;;;;;12.54;100.00;98712.82;106986;1284;23466;-87
2023/09/27 05:22:43;;;;;;;20.40;13.20;;;;;;;12.56;100.00;98715.02;107292;1282;22696;-90
2023/09/27 05:25:12;;;;;;;16.40;12.60;;;;;;;12.59;100.00;98719.90;106978;1282;22555;-91
2023/09/27 05:27:40;;;;;;;25.50;13.10;;;;;;;12.65;100.00;98717.43;107238;1282;22544;-90
2023/09/27 05:30:12;;;;;;;14.50;11.60;;;;;;;12.74;100.00;98719.58;107232;1282;22532;-91
2023/09/27 05:32:43;;;;;;;20.80;12.60;;;;;;;12.82;100.00;98720.98;107118;1282;24234;-91
2023/09/27 05:35:11;;;;;;;21.30;14.00;;;;;;;12.89;100.00;98721.67;106854;1282;23431;-90
2023/09/27 05:37:42;;;;;;;17.30;14.10;;;;;;;12.97;100.00;98713.12;106961;1270;25309;-92
2023/09/27 05:40:11;;;;;;;17.20;13.90;;;;;;;13.07;100.00;98712.54;106816;1259;24229;-92
2023/09/27 05:42:39;;;;;;;17.00;13.60;;;;;;;13.13;100.00;98711.78;106776;1282;22548;-92
2023/09/27 05:45:11;;;;;;;21.90;14.80;;;;;;;13.20;100.00;98712.48;107119;1282;23007;-91
2023/09/27 05:47:41;;;;;;;16.60;13.90;;;;;;;13.28;100.00;98711.52;107752;1263;23141;-91
2023/09/27 05:50:13;;;;;;;14.80;13.20;;;;;;;13.39;100.00;98711.27;106953;1282;22639;-93
2023/09/27 05:52:46;;;;;;;18.40;15.00;;;;;;;13.49;100.00;98713.48;106919;1282;22534;-92
2023/09/27 05:59:01;;;;;;;23.70;16.50;;;;;;;13.86;100.00;98721.20;109864;1282;22568;-87
2023/09/27 06:01:31;;;;;;;19.20;16.60;;;;;;;14.00;100.00;98724.73;109959;1280;22662;-87
2023/09/27 06:04:00;;;;;;;22.00;19.80;;;;;;;14.15;100.00;98725.91;109292;1282;25410;-90
2023/09/27 06:06:29;;;;;;;22.70;20.40;;;;;;;14.29;100.00;98726.33;108210;1282;25411;-90
2023/09/27 06:08:57;;;;;;;22.90;20.40;;;;;;;14.43;100.00;98727.55;108000;1282;22567;-92
2023/09/27 06:11:25;;;;;;;23.30;18.40;;;;;;;14.56;100.00;98726.50;107080;1282;22525;-92
2023/09/27 06:13:53;;;;;;;25.80;19.20;;;;;;;14.69;100.00;98722.79;106800;1282;22642;-92
2023/09/27 06:16:21;;;;;;;22.70;20.20;;;;;;;14.85;100.00;98730.03;107030;1282;24266;-91
2023/09/27 06:18:50;;;;;;;26.20;20.20;;;;;;;14.99;100.00;98733.34;106751;1282;25435;-91
2023/09/27 06:21:19;;;;;;;27.60;21.60;;;;;;;15.13;100.00;98736.92;106848;1282;23899;-91
2023/09/27 06:23:47;;;;;;;26.90;22.40;;;;;;;15.28;100.00;98735.68;106867;1282;22778;-90
2023/09/27 06:26:15;;;;;;;25.60;21.60;;;;;;;15.42;100.00;98733.66;106656;1282;22576;-91
2023/09/27 06:28:43;;;;;;;22.50;19.90;;;;;;;15.53;100.00;98735.77;106785;1282;22554;-86
2023/09/27 06:31:13;;;;;;;26.80;20.10;;;;;;;15.66;100.00;98735.90;106851;1282;25345;-89
2023/09/27 06:33:43;;;;;;;21.60;19.30;;;;;;;15.80;100.00;98740.50;106843;1282;23925;-92
2023/09/27 06:36:11;;;;;;;21.70;19.50;;;;;;;15.93;100.00;98745.36;107697;1260;22537;-87
2023/09/27 06:38:40;;;;;;;21.20;17.30;;;;;;;16.09;100.00;98748.46;108948;1282;22657;-89
2023/09/27 06:41:10;;;;;;;18.70;16.10;;;;;;;16.26;100.00;98750.38;109143;1282;22570;-89
2023/09/27 06:43:38;;;;;;;20.30;17.30;;;;;;;16.42;100.00;98751.67;108550;1282;22538;-92
2023/09/27 06:46:10;;;;;;;20.90;18.40;;;;;;;16.59;100.00;98750.52;106905;1282;22688;-89
2023/09/27 06:48:40;;;;;;;21.70;17.70;;;;;;;16.74;100.00;98756.35;106764;1282;25327;-91
2023/09/27 06:51:11;;;;;;;23.90;16.20;;;;;;;16.87;100.00;98751.52;106801;1282;25516;-91
2023/09/27 06:53:39;;;;;;;16.80;15.10;;;;;;;17.02;100.00;98755.40;106821;1282;22743;-90
2023/09/27 06:56:08;;;;;;;20.20;15.30;;;;;;;17.18;100.00;98756.91;106720;1282;22657;-90
2023/09/27 06:58:37;;;;;;;21.20;13.50;;;;;;;17.35;100.00;98757.95;106830;1282;23326;-89
2023/09/27 07:01:05;;;;;;;15.50;12.00;;;;;;;17.50;100.00;98760.46;106775;1282;22538;-90
2023/09/27 07:03:36;;;;;;;16.50;11.10;;;;;;;17.61;100.00;98757.11;107026;1282;22599;-90
2023/09/27 07:06:04;;;;;;;14.30;10.60;;;;;;;17.72;100.00;98754.39;106876;1282;25304;-90
2023/09/27 07:08:33;;;;;;;14.60;8.80;;;;;;;17.85;100.00;98755.50;106586;1282;25405;-89
2023/09/27 07:12:00;;;;;;;17.50;10.10;;;;;;;17.98;100.00;98753.95;106745;1282;24229;-89
2023/09/27 07:16:41;;;;;;;11.80;8.30;;;;;;;18.18;100.00;98760.61;106505;1285;24139;-89
2023/09/27 07:20:50;;;;;;;11.20;8.30;;;;;;;18.33;100.00;98761.06;106129;1292;22656;-89
2023/09/27 07:24:38;;;;;;;16.10;8.90;;;;;;;18.46;100.00;98761.23;106112;1292;23355;-90
2023/09/27 07:28:46;;;;;;;16.30;8.20;;;;;;;18.57;100.00;98764.96;106052;1292;25194;-88
2023/09/27 07:31:35;;;;;;;12.00;8.10;;;;;;;18.75;100.00;98768.66;106098;1292;24328;-89
2023/09/27 07:34:03;;;;;;;11.30;7.60;;;;;;;18.86;100.00;98769.92;106162;1286;22792;-89
2023/09/27 07:36:31;;;;;;;12.10;7.90;;;;;;;18.94;100.00;98774.54;106426;1288;22578;-89
2023/09/27 07:39:03;;;;;;;11.80;7.90;;;;;;;19.02;100.00;98778.60;106833;1282;25356;-89
2023/09/27 07:41:32;;;;;;;17.00;8.30;;;;;;;19.11;100.00;98780.47;106796;1282;22575;-88
2023/09/27 07:44:01;;;;;;;15.10;8.50;;;;;;;19.20;100.00;98783.32;106698;1282;25288;-88
2023/09/27 07:46:29;;;;;;;10.80;7.30;;;;;;;19.32;100.00;98782.87;107423;1282;23410;-89
2023/09/27 07:48:58;;;;;;;13.30;7.40;;;;;;;19.43;100.00;98785.14;107469;1282;22489;-88
2023/09/27 07:51:25;;;;;;;14.20;8.60;;;;;;;19.53;100.00;98779.27;106687;1282;25225;-88
2023/09/27 07:53:54;;;;;;;10.60;7.70;;;;;;;19.64;100.00;98785.66;106772;1282;25335;-89
2023/09/27 07:56:26;;;;;;;14.50;7.80;;;;;;;19.75;100.00;98786.15;106768;1282;24422;-88
2023/09/27 07:58:54;;;;;;;12.70;7.20;;;;;;;19.85;100.00;98785.33;106768;1282;22541;-88
2023/09/27 08:01:23;;;;;;;15.70;7.80;;;;;;;19.97;100.00;98784.17;106732;1282;22561;-89
2023/09/27 08:04:00;;;;;;;15.40;7.70;;;;;;;20.10;100.00;98787.25;106583;1282;22646;-89
2023/09/27 08:06:29;;;;;;;13.40;7.30;;;;;;;20.21;100.00;98790.76;106708;1282;23901;-89
2023/09/27 08:09:01;;;;;;;12.30;6.70;;;;;;;20.33;100.00;98792.09;106774;1277;22537;-88
2023/09/27 08:11:29;;;;;;;16.00;7.30;;;;;;;20.44;100.00;98790.23;106741;1282;23914;-88
2023/09/27 08:13:57;;;;;;;14.00;6.80;;;;;;;20.54;100.00;98793.39;106813;1282;22642;-88
2023/09/27 08:16:26;;;;;;;10.50;7.00;;;;;;;20.65;100.00;98795.30;106751;1282;22582;-88
2023/09/27 08:18:54;;;;;;;12.10;6.50;;;;;;;20.74;99.38;98798.95;106703;1282;22764;-89
2023/09/27 08:21:23;;;;;;;14.80;6.80;;;;;;;20.83;99.92;98799.39;106783;1282;22619;-89
2023/09/27 08:24:17;;;;;;;12.80;6.30;;;;;;;20.92;99.74;98800.98;106804;1280;22686;-89
2023/09/27 08:26:46;;;;;;;12.80;6.80;;;;;;;20.99;96.85;98801.13;106752;1282;22662;-88
2023/09/27 08:29:14;;;;;;;12.80;6.70;;;;;;;21.08;97.79;98798.25;107503;1282;22622;-88
2023/09/27 08:31:42;;;;;;;14.40;6.70;;;;;;;21.16;96.87;98798.04;107795;1282;22538;-89
2023/09/27 08:34:10;;;;;;;12.00;6.80;;;;;;;21.23;96.79;98798.88;106863;1282;23879;-88
2023/09/27 08:36:38;;;;;;;9.00;6.40;;;;;;;21.32;96.02;98803.67;106800;1282;24279;-89
2023/09/27 08:39:09;;;;;;;15.50;7.50;;;;;;;21.40;94.27;98801.25;106673;1282;23287;-88
2023/09/27 08:41:38;;;;;;;12.00;8.20;;;;;;;21.47;92.29;98804.05;106801;1282;22543;-88
2023/09/27 08:44:07;;;;;;;14.50;7.60;;;;;;;21.57;93.60;98801.56;106690;1282;23037;-89
2023/09/27 08:46:36;;;;;;;11.90;7.70;;;;;;;21.69;93.86;98806.23;107780;1282;22490;-88
2023/09/27 08:49:06;;;;;;;13.10;7.40;;;;;;;21.83;93.53;98805.40;107599;1282;22608;-89
2023/09/27 08:51:38;;;;;;;15.80;6.90;;;;;;;21.94;92.03;98806.89;107233;1282;25243;-88
2023/09/27 08:54:06;;;;;;;13.40;6.90;;;;;;;22.05;92.14;98806.40;107652;1282;22751;-88
2023/09/27 08:56:35;;;;;;;12.20;7.00;;;;;;;22.14;90.18;98807.81;106693;1282;24365;-89
2023/09/27 08:59:05;;;;;;;12.10;6.10;;;;;;;22.23;89.56;98805.45;106819;1262;24451;-89
2023/09/27 09:01:33;;;;;;;12.80;6.40;;;;;;;22.29;88.65;98804.81;106756;1282;22540;-89
2023/09/27 09:04:02;;;;;;;27.30;6.90;;;;;;;22.39;88.90;98804.83;106565;1282;22552;-88
2023/09/27 09:06:31;;;;;;;12.00;7.00;;;;;;;22.51;89.53;98801.42;106606;1282;24347;-89
2023/09/27 09:09:13;;;;;;;13.90;6.90;;;;;;;22.65;89.41;98801.86;106622;1282;25718;-89
2023/09/27 09:11:47;;;;;;;12.90;6.20;;;;;;;22.80;89.22;98801.56;106695;1282;22545;-88
2023/09/27 09:14:22;;;;;;;9.20;6.00;;;;;;;22.93;87.33;98802.89;106719;1282;24049;-88
2023/09/27 09:16:54;;;;;;;12.50;6.50;;;;;;;23.02;87.34;98803.64;106756;1282;22544;-88
2023/09/27 09:19:24;;;;;;;14.20;6.50;;;;;;;23.11;86.00;98800.70;106658;1282;22537;-89
2023/09/27 09:22:14;;;;;;;18.90;6.30;;;;;;;23.20;86.58;98801.21;106653;1282;25344;-89
2023/09/27 09:24:43;;;;;;;14.20;6.40;;;;;;;23.30;85.44;98794.42;106962;1282;22636;-89
2023/09/27 09:27:19;;;;;;;20.80;7.00;;;;;;;23.41;85.94;98796.45;106641;1282;25395;-89
2023/09/27 09:29:53;;;;;;;12.60;5.90;;;;;;;23.50;83.79;98790.52;106762;1282;22550;-89
2023/09/27 09:32:25;;;;;;;15.50;6.60;;;;;;;23.59;84.12;98792.02;106806;1282;23809;-89
2023/09/27 09:34:56;;;;;;;9.50;6.20;;;;;;;23.68;83.63;98791.56;106722;1282;23283;-89
2023/09/27 09:37:27;;;;;;;11.90;6.60;;;;;;;23.78;83.77;98791.54;106731;1282;25471;-89
2023/09/27 09:40:14;;;;;;;13.00;6.20;;;;;;;23.90;83.21;98790.27;106751;1282;25409;-89
2023/09/27 09:42:43;;;;;;;13.80;5.90;;;;;;;24.02;82.29;98790.63;106600;1282;22547;-90
2023/09/27 09:45:12;;;;;;;13.00;6.20;;;;;;;24.10;81.55;98794.08;106787;1282;23489;-90
2023/09/27 09:47:43;;;;;;;13.50;6.20;;;;;;;24.21;81.92;98796.63;109284;1282;23008;-87
2023/09/27 09:50:16;;;;;;;13.20;6.90;;;;;;;24.28;81.68;98794.52;108902;1282;23851;-88
2023/09/27 09:52:58;;;;;;;19.80;5.90;;;;;;;24.38;80.31;98796.20;109227;1282;24050;-88
2023/09/27 09:55:29;;;;;;;10.60;5.90;;;;;;;24.49;79.36;98795.92;109150;1282;25572;-90
2023/09/27 09:58:29;;;;;;;13.40;6.40;;;;;;;24.58;79.53;98796.78;107822;1282;22536;-88
2023/09/27 10:01:01;;;;;;;13.10;6.00;;;;;;;24.71;79.51;98799.41;107932;1282;22530;-89
2023/09/27 10:04:24;;;;;;;12.70;5.40;;;;;;;24.79;77.92;98797.09;107393;1282;25359;-89
2023/09/27 10:06:55;;;;;;;10.10;5.80;;;;;;;24.87;77.88;98796.33;106854;1282;22602;-88
2023/09/27 10:09:28;;;;;;;9.90;5.50;;;;;;;24.96;77.27;98792.91;106760;1282;23463;-88
2023/09/27 10:12:24;;;;;;;9.80;5.30;;;;;;;25.04;77.48;98795.95;106634;1282;22674;-88
2023/09/27 10:14:52;;;;;;;8.00;4.90;;;;;;;25.19;76.99;98795.70;106681;1282;25421;-89
2023/09/27 10:17:22;;;;;;;11.50;5.10;;;;;;;25.30;75.33;98795.91;106599;1282;24269;-87
2023/09/27 10:20:25;;;;;;;10.20;5.00;;;;;;;25.41;75.20;98798.24;106578;1282;24253;-87
2023/09/27 10:22:53;;;;;;;7.60;4.40;;;;;;;25.58;73.59;98795.30;106158;1289;24324;-88
2023/09/27 10:25:26;;;;;;;15.40;5.00;;;;;;;25.65;73.81;98796.09;106562;1282;24209;-87
2023/09/27 10:28:01;;;;;;;15.40;5.00;;;;;;;25.81;73.38;98789.57;106656;1282;24228;-88
2023/09/27 10:30:41;;;;;;;13.20;4.80;;;;;;;25.94;72.75;98790.12;106713;1282;22634;-88
2023/09/27 10:33:14;;;;;;;12.60;5.40;;;;;;;25.95;69.59;98784.77;106710;1282;24278;-88
2023/09/27 10:35:45;;;;;;;19.10;6.10;;;;;;;26.01;70.41;98783.70;106796;1282;22533;-87
2023/09/27 10:38:13;;;;;;;10.20;4.90;;;;;;;26.11;68.59;98775.37;106720;1282;22766;-86
2023/09/27 10:40:46;;;;;;;10.50;5.00;;;;;;;26.21;66.61;98773.23;106652;1282;25300;-87
2023/09/27 10:43:38;;;;;;;9.00;4.40;;;;;;;26.27;65.97;98770.35;106680;1282;25412;-88
2023/09/27 10:46:07;;;;;;;14.10;5.20;;;;;;;26.33;64.27;98768.75;106672;1282;22674;-88
2023/09/27 10:48:42;;;;;;;9.50;4.80;;;;;;;26.37;65.62;98766.65;106620;1282;24216;-88
2023/09/27 10:51:10;;;;;;;10.00;4.70;;;;;;;26.49;64.89;98767.23;106603;1282;22662;-89
2023/09/27 10:53:38;;;;;;;12.90;5.00;;;;;;;26.54;63.88;98765.31;106740;1282;22562;-88
2023/09/27 10:56:07;;;;;;;10.50;4.50;;;;;;;26.61;63.07;98762.90;106805;1282;24362;-89
2023/09/27 10:58:44;;;;;;;13.30;5.30;;;;;;;26.75;64.01;98763.15;106687;1282;25516;-89
2023/09/27 11:01:19;;;;;;;10.60;4.80;;;;;;;26.84;61.80;98763.13;106703;1282;22617;-88
2023/09/27 11:03:47;;;;;;;11.90;4.90;;;;;;;26.86;60.95;98764.00;106572;1282;22541;-88
2023/09/27 11:06:16;;;;;;;16.00;5.50;;;;;;;26.82;58.86;98759.73;106584;1282;22760;-89
2023/09/27 11:08:44;;;;;;;9.10;4.70;;;;;;;26.81;59.50;98760.27;106700;1282;22552;-89
2023/09/27 11:11:13;;;;;;;10.10;5.00;;;;;;;26.87;58.91;98756.73;106854;1282;22555;-88
2023/09/27 11:13:45;;;;;;;12.50;5.70;;;;;;;27.01;60.05;98754.61;106722;1282;22528;-90
2023/09/27 11:16:14;;;;;;;9.80;4.60;;;;;;;27.08;58.68;98750.84;106671;1282;25358;-87
2023/09/27 11:18:51;;;;;;;10.20;4.90;;;;;;;27.14;58.29;98747.31;106763;1282;22560;-88
2023/09/27 11:21:19;;;;;;;12.50;5.10;;;;;;;27.27;58.04;98745.17;107054;1282;22488;-88
2023/09/27 11:23:53;;;;;;;11.90;4.70;;;;;;;27.40;58.72;98738.65;107953;1282;23927;-88
2023/09/27 11:26:22;;;;;;;9.30;4.70;;;;;;;27.54;58.60;98742.49;106998;1282;22556;-89
2023/09/27 11:29:06;;;;;;;15.20;4.70;;;;;;;27.64;57.68;98739.35;106763;1282;22827;-89
2023/09/27 11:31:38;;;;;;;10.40;4.70;;;;;;;27.71;57.03;98739.76;106658;1282;23900;-89
2023/09/27 11:34:11;;;;;;;12.30;4.60;;;;;;;27.75;54.48;98737.72;106659;1282;25260;-89